Roaring Gap, North Carolina
Current Conditions -  °F | °C
As of 2:55 PM on Friday 28 Nov 2014 (Local Time) from KUKF Reporting Station
Scattered Clouds Scattered Clouds  
Wind Chill:   Ceiling: Unl
Heat Index:   Visibility: 10mi
Dew Point: -7°   Wind: 0mph
Humidity: 42%   Direction: NA
Pressure: 30.3"   Gusts: NA
Location:  36.4°N, 80.98°W
Report Text: KUKF 281955Z AUTO 00000KT 10SM SCT075 SCT120 05/M07 A3030 RMK AO2
Loading
Personal Weather Stations






























Interactive Weather Map New forecast layout! Learn more

10-Day Weather Forecast

Advertisements
Track Severe Weather on mobile